CheckWX is a tool to help pilots better visualize weather data.  It is not intended as a substitute for an official pre-flight weather briefing.

11:53:17 UTC

KEWR TAF
Newark Liberty International Airport
Newark, New Jersey, USA
KEWR 050521Z 0506/0612 21005KT P6SM BKN050 FM050900 VRB04KT P6SM BKN035 FM051500 23005KT P6SM SCT035 BKN060 FM051900 20008KT P6SM BKN060 FM060000 23006KT P6SM BKN060 FM060400 30005KT P6SM BKN050 FM060700 35008KT P6SM BKN050

Apr-5@
06:00 UTC

Apr-5 @ 06:00 UTC

Apr-5@
09:00 UTC

Apr-5 @ 09:00 UTC

TAF KEWR 050521Z 0506/0612 21005KT P6SM BKN050

Expired

Wind
  • 210° at 5 KTS
Cloud Levels
  • Broken at 5,000' AGL

Apr-5@
09:00 UTC

Apr-5 @ 09:00 UTC

Apr-5@
15:00 UTC

Apr-5 @ 15:00 UTC

FM050900 VRB04KT P6SM BKN035

Expired

Wind
  • Variable at 4 KTS
Cloud Levels
  • Broken at 3,500' AGL

Apr-5@
15:00 UTC

Apr-5 @ 15:00 UTC

Apr-5@
19:00 UTC

Apr-5 @ 19:00 UTC

FM051500 23005KT P6SM SCT035 BKN060

Expired

Wind
  • 230° at 5 KTS
Cloud Levels
  • Scattered at 3,500' AGL
  • Broken at 6,000' AGL

Apr-5@
19:00 UTC

Apr-5 @ 19:00 UTC

Apr-6@
00:00 UTC

Apr-6 @ 00:00 UTC

FM051900 20008KT P6SM BKN060

Expired

Wind
  • 200° at 8 KTS
Cloud Levels
  • Broken at 6,000' AGL

Apr-6@
00:00 UTC

Apr-6 @ 00:00 UTC

Apr-6@
04:00 UTC

Apr-6 @ 04:00 UTC

FM060000 23006KT P6SM BKN060

Expired

Wind
  • 230° at 6 KTS
Cloud Levels
  • Broken at 6,000' AGL

Apr-6@
04:00 UTC

Apr-6 @ 04:00 UTC

Apr-6@
07:00 UTC

Apr-6 @ 07:00 UTC

FM060400 30005KT P6SM BKN050

Expired

Wind
  • 300° at 5 KTS
Cloud Levels
  • Broken at 5,000' AGL

Apr-6@
07:00 UTC

Apr-6 @ 07:00 UTC

Apr-6@
12:00 UTC

Apr-6 @ 12:00 UTC

FM060700 35008KT P6SM BKN050

From

From Standard forecast or significant change

Wind
  • 350° at 8 KTS
Cloud Levels
  • Broken at 5,000' AGL